Погода Саткхирана 2 недели

Кхулна, Бангладеш

21 апреля-04 мая
  • 21апреля
    Сегодня
    +29°
    +40°
    Практически безоблачно
    ВремяПогодаТемператураВлажностьДавлениеВетер, м/сВероятность осадков
    00:00Ясно и безоблачно+31°C89 %751 мм1.1 м/с2 %
    03:00Ясно и безоблачно+30°C86 %750 мм4.3 м/с2 %
    06:00Ясно и безоблачно+29°C93 %751 мм0.4 м/с2 %
    09:00Ясно и безоблачно+34°C70 %752 мм0.4 м/с2 %
    12:00Практически безоблачно+38°C44 %752 мм1.1 м/с2 %
    15:00Практически безоблачно+40°C35 %750 мм0.9 м/с2 %
    18:00Ясно и безоблачно+36°C48 %749 мм0.4 м/с2 %
    21:00Ясно и безоблачно+32°C72 %751 мм1.1 м/с2 %
  • 22апреля
    Понедельник
    +28°
    +40°
    Небольшая облачность
    ВремяПогодаТемператураВлажностьДавлениеВетер, м/сВероятность осадков
    00:00Практически безоблачно+31°C87 %751 мм0.9 м/с2 %
    03:00Облачно с прояснениями+30°C92 %750 мм1.8 м/с2 %
    06:00Небольшая облачность+29°C94 %751 мм0.4 м/с2 %
    09:00Облачно с прояснениями+34°C58 %753 мм0.4 м/с2 %
    12:00Облачно с прояснениями+37°C24 %753 мм0.8 м/с2 %
    15:00Небольшая облачность+39°C23 %751 мм0.7 м/с2 %
    18:00Облачно с прояснениями+36°C41 %751 мм0.2 м/с2 %
    21:00Пасмурно, сплошная облачность+32°C51 %753 мм0.4 м/с2 %
  • 23апреля
    Вторник
    +29°
    +40°
    Ясно и безоблачно
    ВремяПогодаТемператураВлажностьДавлениеВетер, м/сВероятность осадков
    00:00Пасмурно, сплошная облачность+31°C41 %753 мм0.4 м/с2 %
    03:00Облачно с прояснениями+29°C48 %752 мм2.8 м/с9 %
    06:00Практически безоблачно+29°C50 %752 мм0.1 м/с2 %
    09:00Ясно и безоблачно+33°C43 %754 мм0.3 м/с2 %
    12:00Ясно и безоблачно+37°C32 %753 мм1.1 м/с2 %
    15:00Ясно и безоблачно+39°C28 %750 мм0.6 м/с2 %
    18:00Ясно и безоблачно+36°C53 %750 мм0.2 м/с2 %
    21:00Ясно и безоблачно+32°C52 %752 мм0.8 м/с2 %
  • 24апреля
    Среда
    +28°
    +41°
    Ясно и безоблачно
    ВремяПогодаТемператураВлажностьДавлениеВетер, м/сВероятность осадков
    00:00Ясно и безоблачно+31°C61 %752 мм0.9 м/с2 %
    03:00Ясно и безоблачно+30°C69 %751 мм3.8 м/с2 %
    06:00Ясно и безоблачно+29°C75 %751 мм0.5 м/с2 %
    09:00Ясно и безоблачно+34°C53 %753 мм0.6 м/с2 %
    12:00Ясно и безоблачно+38°C29 %752 мм1.0 м/с2 %
    15:00Ясно и безоблачно+40°C24 %750 мм0.7 м/с2 %
    18:00Ясно и безоблачно+36°C47 %750 мм0.2 м/с2 %
    21:00Ясно и безоблачно+32°C50 %751 мм0.7 м/с2 %
  • 25апреля
    Четверг
    +28°
    +41°
    Ясно и безоблачно
    ВремяПогодаТемператураВлажностьДавлениеВетер, м/сВероятность осадков
    00:00Ясно и безоблачно+31°C66 %752 мм0.8 м/с2 %
    03:00Ясно и безоблачно+30°C74 %751 мм3.1 м/с2 %
    06:00Ясно и безоблачно+29°C86 %752 мм0.3 м/с2 %
    09:00Ясно и безоблачно+34°C62 %754 мм0.4 м/с2 %
    12:00Ясно и безоблачно+39°C32 %753 мм0.7 м/с2 %
    15:00Ясно и безоблачно+41°C20 %751 мм0.5 м/с2 %
    18:00Ясно и безоблачно+36°C35 %750 мм0.3 м/с2 %
    21:00Ясно и безоблачно+32°C58 %752 мм1.0 м/с2 %
Мы используем cookies
Соглашаюсь